Flourtown, Pennsylvania
Current Conditions -  °F | °C
As of 11:55 AM on Friday 24 Oct 2014 (Local Time) from KLOM Reporting Station
Clear Clear  
Wind Chill: 64°   Ceiling: Unl
Heat Index: 64°   Visibility: 10mi
Dew Point: 45°   Wind: 10mph
Humidity: 49%   Direction: 300°WNW
Pressure: 29.85"   Gusts: 18mph
Location:  40.1°N, 75.21°W
Report Text: KLOM 241555Z AUTO 30009G16KT 260V340 10SM CLR 18/07 A2985 RMK AO1
Loading
Personal Weather Stations






























Interactive Weather Map
Tropical Storm Tracking
New forecast layout! Learn more

10-Day Weather Forecast

Advertisements
Track Severe Weather on mobile